createdAt,value
2022-08-17T00:00:34.246Z,19.55
2022-08-17T00:03:26.645Z,18.52
2022-08-17T00:06:18.373Z,20.38
2022-08-17T00:09:05.191Z,20.30
2022-08-17T00:12:41.578Z,24.88
2022-08-17T00:14:56.110Z,21.80
2022-08-17T00:17:43.947Z,19.52
2022-08-17T00:20:30.585Z,21.25
2022-08-17T00:23:20.426Z,17.85
2022-08-17T00:26:05.366Z,19.48
2022-08-17T00:28:50.322Z,19.63
2022-08-17T00:31:37.282Z,23.30
2022-08-17T00:34:22.133Z,19.63
2022-08-17T00:37:07.041Z,22.42
2022-08-17T00:39:52.484Z,20.83
2022-08-17T00:42:38.560Z,20.70
2022-08-17T00:45:23.618Z,22.40
2022-08-17T00:48:11.566Z,19.65
2022-08-17T00:51:17.775Z,23.55
2022-08-17T00:54:18.390Z,21.75
2022-08-17T00:57:12.274Z,22.33
2022-08-17T01:00:03.745Z,23.40
2022-08-17T01:02:48.829Z,23.00
2022-08-17T01:05:38.278Z,21.67
2022-08-17T01:08:29.375Z,23.83
2022-08-17T01:11:14.480Z,23.33
2022-08-17T01:13:59.275Z,22.73
2022-08-17T01:16:45.265Z,22.88
2022-08-17T01:19:33.811Z,24.42
2022-08-17T01:22:23.770Z,25.88
2022-08-17T01:27:55.874Z,25.85
2022-08-17T01:30:58.226Z,22.98
2022-08-17T01:33:45.162Z,26.63
2022-08-17T01:36:30.033Z,24.48
2022-08-17T01:39:26.129Z,24.30
2022-08-17T01:42:15.230Z,22.75
2022-08-17T01:45:08.032Z,28.48
2022-08-17T01:47:54.740Z,28.38
2022-08-17T01:50:44.035Z,22.52
2022-08-17T01:53:41.010Z,26.38
2022-08-17T01:59:13.966Z,26.05
2022-08-17T02:02:00.433Z,26.83
2022-08-17T02:04:45.694Z,27.35
2022-08-17T02:07:30.545Z,28.83
2022-08-17T02:10:20.001Z,26.67
2022-08-17T02:13:05.675Z,27.52
2022-08-17T02:15:50.891Z,26.52
2022-08-17T02:18:36.462Z,33.05
2022-08-17T02:21:21.952Z,28.02
2022-08-17T02:24:11.136Z,30.58
2022-08-17T02:26:56.071Z,30.15
2022-08-17T02:29:41.092Z,27.00
2022-08-17T02:32:28.088Z,27.48
2022-08-17T02:35:14.005Z,29.83
2022-08-17T02:38:06.899Z,25.80
2022-08-17T02:40:52.000Z,29.15
2022-08-17T02:43:36.999Z,27.63
2022-08-17T02:46:22.138Z,24.77
2022-08-17T02:49:07.426Z,24.20
2022-08-17T02:51:52.691Z,26.42
2022-08-17T02:54:40.776Z,25.00
2022-08-17T02:57:27.241Z,24.17
2022-08-17T03:00:17.766Z,24.73
2022-08-17T03:03:04.896Z,24.90
2022-08-17T03:05:53.596Z,25.55
2022-08-17T03:08:40.035Z,24.77
2022-08-17T03:11:25.064Z,27.80
2022-08-17T03:14:10.658Z,24.92
2022-08-17T03:16:55.375Z,27.27
2022-08-17T03:19:42.912Z,24.42
2022-08-17T03:22:47.910Z,24.63
2022-08-17T03:25:37.700Z,28.80
2022-08-17T03:28:24.454Z,24.05
2022-08-17T03:31:09.170Z,24.65
2022-08-17T03:33:54.439Z,24.85
2022-08-17T03:36:39.709Z,23.98
2022-08-17T03:39:24.590Z,25.05
2022-08-17T03:42:32.331Z,25.10
2022-08-17T03:45:42.253Z,22.60
2022-08-17T03:48:46.795Z,23.88
2022-08-17T03:51:49.987Z,23.38
2022-08-17T03:54:53.440Z,23.17
2022-08-17T03:57:38.411Z,27.77
2022-08-17T04:00:23.397Z,24.30
2022-08-17T04:03:09.034Z,26.77
2022-08-17T04:05:54.033Z,20.40
2022-08-17T04:08:39.440Z,26.17
2022-08-17T04:11:24.995Z,25.13
2022-08-17T04:14:10.150Z,23.48
2022-08-17T04:16:55.551Z,26.70
2022-08-17T04:19:40.788Z,25.00
2022-08-17T04:22:32.479Z,24.67
2022-08-17T04:25:18.945Z,25.55
2022-08-17T04:28:05.671Z,24.70
2022-08-17T04:30:59.425Z,24.40
2022-08-17T04:33:44.582Z,25.25
2022-08-17T04:36:29.360Z,24.08
2022-08-17T04:39:14.303Z,23.88
2022-08-17T04:42:16.429Z,24.15
2022-08-17T04:45:04.057Z,24.13
2022-08-17T04:47:49.232Z,24.58
2022-08-17T04:50:36.887Z,27.20
2022-08-17T04:53:25.576Z,26.85
2022-08-17T04:56:16.677Z,22.85
2022-08-17T04:59:13.474Z,25.77
2022-08-17T05:01:58.730Z,26.52
2022-08-17T05:04:43.741Z,22.48
2022-08-17T05:07:31.582Z,25.90
2022-08-17T05:10:17.256Z,24.17
2022-08-17T05:13:06.938Z,26.77
2022-08-17T05:18:40.715Z,28.45
2022-08-17T05:21:26.908Z,28.30
2022-08-17T05:24:13.524Z,27.13
2022-08-17T05:27:19.053Z,27.50
2022-08-17T05:30:04.702Z,27.98
2022-08-17T05:32:54.746Z,27.20
2022-08-17T05:35:43.826Z,24.58
2022-08-17T05:38:30.322Z,22.75
2022-08-17T05:41:15.522Z,24.75
2022-08-17T05:44:00.421Z,24.88
2022-08-17T05:46:52.698Z,22.40
2022-08-17T05:49:37.948Z,27.17
2022-08-17T05:52:29.071Z,29.40
2022-08-17T05:55:35.060Z,36.30
2022-08-17T05:58:24.847Z,39.65
2022-08-17T06:01:31.375Z,37.25
2022-08-17T06:04:54.873Z,37.83
2022-08-17T06:07:48.172Z,39.85
2022-08-17T06:10:45.932Z,38.58
2022-08-17T06:13:52.935Z,41.00
2022-08-17T06:16:44.336Z,42.65
2022-08-17T06:19:41.812Z,48.17
2022-08-17T06:22:32.764Z,47.60
2022-08-17T06:25:21.478Z,48.50
2022-08-17T06:28:14.273Z,53.53
2022-08-17T06:31:07.362Z,58.47
2022-08-17T06:33:52.561Z,62.83
2022-08-17T06:37:01.207Z,54.03
2022-08-17T06:40:01.153Z,50.15
2022-08-17T06:43:06.687Z,57.33
2022-08-17T06:46:15.415Z,56.75
2022-08-17T06:49:24.606Z,59.45
2022-08-17T06:52:45.356Z,54.15
2022-08-17T06:55:46.026Z,43.30
2022-08-17T06:58:33.002Z,44.30
2022-08-17T07:01:26.462Z,44.10
2022-08-17T07:04:25.791Z,49.55
2022-08-17T07:07:30.398Z,46.20
2022-08-17T07:10:16.330Z,44.58
2022-08-17T07:13:21.725Z,49.33
2022-08-17T07:16:23.963Z,47.42
2022-08-17T07:19:11.055Z,48.85
2022-08-17T07:22:30.234Z,43.95
2022-08-17T07:25:35.409Z,55.88
2022-08-17T07:28:23.969Z,45.55
2022-08-17T07:31:12.760Z,48.10
2022-08-17T07:34:06.257Z,44.30
2022-08-17T07:37:04.759Z,40.33
2022-08-17T07:40:04.470Z,44.97
2022-08-17T07:43:21.803Z,43.45
2022-08-17T07:46:40.520Z,40.67
2022-08-17T07:49:31.843Z,40.80
2022-08-17T07:52:51.998Z,37.47
2022-08-17T07:55:39.895Z,42.30
2022-08-17T07:58:25.987Z,41.75
2022-08-17T08:01:17.943Z,53.40
2022-08-17T08:04:50.022Z,48.67
2022-08-17T08:07:35.387Z,48.15
2022-08-17T08:10:45.004Z,45.88
2022-08-17T08:13:31.828Z,44.45
2022-08-17T08:16:17.032Z,46.05
2022-08-17T08:19:02.242Z,45.78
2022-08-17T08:22:05.061Z,43.40
2022-08-17T08:25:16.200Z,46.53
2022-08-17T08:28:15.210Z,44.70
2022-08-17T08:31:23.831Z,44.75
2022-08-17T08:34:08.872Z,42.03
2022-08-17T08:37:48.452Z,41.60
2022-08-17T08:40:50.386Z,37.30
2022-08-17T08:43:56.480Z,37.25
2022-08-17T08:47:09.490Z,37.28
2022-08-17T08:50:30.220Z,31.27
2022-08-17T08:53:45.097Z,26.45
2022-08-17T08:57:19.473Z,23.10
2022-08-17T09:00:10.292Z,21.27
2022-08-17T09:03:08.429Z,16.60
2022-08-17T09:06:37.539Z,18.02
2022-08-17T09:09:42.419Z,18.63
2022-08-17T09:12:59.662Z,17.40
2022-08-17T09:15:58.614Z,15.45
2022-08-17T09:19:01.473Z,13.93
2022-08-17T09:21:54.414Z,15.82
2022-08-17T09:24:56.623Z,15.90
2022-08-17T09:27:58.086Z,15.10
2022-08-17T09:30:51.633Z,15.13
2022-08-17T09:33:45.357Z,13.20
2022-08-17T09:36:43.594Z,13.88
2022-08-17T09:39:42.427Z,11.55
2022-08-17T09:42:45.292Z,12.38
2022-08-17T09:45:29.872Z,12.60
2022-08-17T09:48:26.990Z,14.85
2022-08-17T09:51:15.216Z,16.83
2022-08-17T09:54:21.055Z,14.48
2022-08-17T09:57:32.470Z,14.25
2022-08-17T10:00:26.955Z,15.45
2022-08-17T10:03:15.830Z,15.43
2022-08-17T10:06:10.163Z,17.33
2022-08-17T10:09:09.702Z,18.42
2022-08-17T10:12:17.317Z,17.77
2022-08-17T10:15:09.527Z,18.58
2022-08-17T10:18:08.190Z,18.38
2022-08-17T10:21:13.255Z,17.15
2022-08-17T10:25:21.598Z,16.02
2022-08-17T10:27:59.207Z,16.35
2022-08-17T10:31:16.692Z,15.43
2022-08-17T10:34:23.221Z,16.92
2022-08-17T10:37:14.758Z,16.40
2022-08-17T10:40:27.333Z,12.18
2022-08-17T10:43:33.396Z,12.55
2022-08-17T10:46:52.108Z,14.25
2022-08-17T10:49:48.935Z,12.45
2022-08-17T10:52:40.706Z,11.07
2022-08-17T10:55:26.059Z,12.40
2022-08-17T10:58:21.427Z,11.80
2022-08-17T11:01:08.309Z,14.55
2022-08-17T11:03:56.239Z,11.88
2022-08-17T11:07:01.737Z,11.52
2022-08-17T11:10:15.870Z,11.27
2022-08-17T11:13:21.213Z,12.15
2022-08-17T11:16:35.237Z,12.40
2022-08-17T11:19:37.875Z,12.20
2022-08-17T11:22:43.825Z,10.70
2022-08-17T11:25:40.097Z,10.80
2022-08-17T11:28:33.858Z,10.85
2022-08-17T11:31:43.699Z,12.23
2022-08-17T11:34:31.151Z,13.63
2022-08-17T11:37:39.697Z,11.73
2022-08-17T11:40:36.495Z,11.95
2022-08-17T11:43:46.204Z,13.50
2022-08-17T11:47:11.388Z,10.95
2022-08-17T11:50:38.916Z,11.90
2022-08-17T11:54:21.390Z,11.32
2022-08-17T11:57:26.370Z,12.32
2022-08-17T12:00:49.578Z,16.02
2022-08-17T12:03:34.449Z,16.20
2022-08-17T12:06:22.503Z,21.83
2022-08-17T12:09:20.566Z,20.00
2022-08-17T12:12:32.483Z,19.25
2022-08-17T12:15:25.187Z,23.63
2022-08-17T12:18:20.513Z,26.05
2022-08-17T12:21:45.625Z,31.50
2022-08-17T12:24:33.402Z,28.75
2022-08-17T12:28:04.647Z,26.33
2022-08-17T12:30:37.354Z,24.75
2022-08-17T12:33:27.902Z,25.02
2022-08-17T12:36:16.027Z,21.08
2022-08-17T12:39:13.832Z,19.27
2022-08-17T12:42:02.648Z,21.60
2022-08-17T12:44:50.741Z,11.13
2022-08-17T12:47:37.093Z,10.00
2022-08-17T12:50:29.014Z,14.13
2022-08-17T12:53:20.873Z,21.15
2022-08-17T12:56:11.441Z,15.07
2022-08-17T12:58:57.250Z,17.23
2022-08-17T13:01:42.522Z,18.30
2022-08-17T13:04:29.678Z,19.38
2022-08-17T13:07:29.618Z,20.35
2022-08-17T13:10:35.357Z,19.60
2022-08-17T13:13:24.323Z,21.85
2022-08-17T13:16:12.066Z,22.35
2022-08-17T13:19:13.763Z,25.90
2022-08-17T13:22:01.222Z,45.63
2022-08-17T13:24:55.875Z,43.47
2022-08-17T13:27:42.463Z,34.17
2022-08-17T13:30:32.624Z,30.92
2022-08-17T13:33:43.331Z,27.65
2022-08-17T13:36:32.877Z,26.40
2022-08-17T13:39:24.355Z,28.85
2022-08-17T13:42:33.366Z,25.83
2022-08-17T13:45:42.943Z,26.40
2022-08-17T13:48:33.361Z,30.15
2022-08-17T13:51:31.267Z,29.77
2022-08-17T13:54:22.737Z,28.75
2022-08-17T13:57:22.487Z,27.45
2022-08-17T14:00:15.347Z,29.42
2022-08-17T14:03:03.845Z,24.30
2022-08-17T14:05:50.142Z,25.77
2022-08-17T14:08:36.636Z,26.05
2022-08-17T14:11:22.908Z,20.48
2022-08-17T14:14:08.724Z,22.58
2022-08-17T14:16:53.793Z,25.17
2022-08-17T14:19:39.151Z,18.90
2022-08-17T14:22:33.724Z,18.25
2022-08-17T14:25:23.317Z,21.23
2022-08-17T14:28:08.445Z,17.45
2022-08-17T14:30:53.578Z,17.48
2022-08-17T14:33:38.458Z,18.20
2022-08-17T14:36:23.284Z,20.15
2022-08-17T14:39:12.848Z,19.95
2022-08-17T14:41:57.997Z,18.15
2022-08-17T14:44:43.237Z,18.90
2022-08-17T14:47:28.185Z,16.95
2022-08-17T14:50:19.522Z,20.02
2022-08-17T14:53:07.159Z,18.83
2022-08-17T14:55:52.144Z,24.30
2022-08-17T14:58:38.443Z,21.27
2022-08-17T15:01:25.106Z,26.20
2022-08-17T15:04:14.298Z,24.65
2022-08-17T15:06:59.340Z,22.85
2022-08-17T15:09:44.864Z,22.33
2022-08-17T15:12:33.962Z,23.70
2022-08-17T15:15:19.848Z,20.15
2022-08-17T15:18:05.366Z,22.35
2022-08-17T15:20:50.757Z,26.73
2022-08-17T15:23:36.707Z,28.58
2022-08-17T15:26:26.067Z,24.88
2022-08-17T15:29:11.259Z,29.08
2022-08-17T15:32:00.445Z,32.53
2022-08-17T15:34:45.707Z,26.73
2022-08-17T15:37:31.556Z,27.90
2022-08-17T15:40:16.803Z,26.30
2022-08-17T15:43:10.305Z,28.73
2022-08-17T15:45:59.952Z,29.75
2022-08-17T15:48:48.298Z,34.50
2022-08-17T15:51:34.990Z,29.38
2022-08-17T15:54:22.750Z,31.58
2022-08-17T15:57:08.488Z,27.40
2022-08-17T15:59:59.061Z,26.48
2022-08-17T16:03:13.703Z,23.67
2022-08-17T16:05:50.469Z,22.67
2022-08-17T16:08:36.403Z,18.98
2022-08-17T16:11:22.241Z,19.45
2022-08-17T16:14:07.176Z,21.92
2022-08-17T16:16:52.249Z,24.15
2022-08-17T16:19:38.858Z,23.52
2022-08-17T16:22:43.287Z,24.45
2022-08-17T16:25:38.273Z,23.48
2022-08-17T16:28:37.863Z,23.55
2022-08-17T16:31:23.138Z,23.75
2022-08-17T16:34:18.000Z,21.58
2022-08-17T16:37:03.943Z,22.67
2022-08-17T16:39:48.674Z,24.65
2022-08-17T16:42:36.466Z,23.02
2022-08-17T16:45:28.578Z,22.20
2022-08-17T16:48:15.070Z,21.00
2022-08-17T16:51:03.378Z,25.83
2022-08-17T16:53:57.805Z,26.42
2022-08-17T16:56:45.342Z,22.40
2022-08-17T16:59:41.978Z,20.90
2022-08-17T17:02:33.749Z,22.88
2022-08-17T17:08:11.983Z,19.75
2022-08-17T17:11:03.675Z,20.40
2022-08-17T17:13:58.938Z,19.55
2022-08-17T17:16:50.195Z,22.83
2022-08-17T17:19:40.773Z,22.75
2022-08-17T17:22:47.683Z,25.77
2022-08-17T17:25:39.166Z,28.25
2022-08-17T17:28:38.084Z,26.15
2022-08-17T17:31:29.754Z,28.33
2022-08-17T17:34:16.052Z,31.73
2022-08-17T17:37:10.155Z,30.15
2022-08-17T17:40:05.321Z,31.58
2022-08-17T17:43:09.245Z,32.28
2022-08-17T17:46:28.245Z,36.75
2022-08-17T17:49:17.452Z,41.33
2022-08-17T17:52:20.364Z,37.60
2022-08-17T17:55:14.579Z,42.10
2022-08-17T17:58:19.392Z,42.95
2022-08-17T18:01:21.946Z,44.40
2022-08-17T18:04:23.917Z,38.38
2022-08-17T18:07:33.496Z,38.03
2022-08-17T18:10:40.372Z,33.35
2022-08-17T18:13:34.894Z,29.83
2022-08-17T18:16:20.231Z,31.48
2022-08-17T18:19:06.167Z,32.67
2022-08-17T18:22:14.996Z,30.45
2022-08-17T18:25:00.295Z,30.35
2022-08-17T18:27:50.763Z,31.23
2022-08-17T18:30:36.169Z,41.15
2022-08-17T18:33:23.996Z,43.20
2022-08-17T18:36:10.290Z,45.95
2022-08-17T18:39:28.067Z,39.58
2022-08-17T18:42:25.778Z,41.13
2022-08-17T18:45:12.355Z,40.15
2022-08-17T18:47:57.390Z,40.78
2022-08-17T18:50:42.552Z,40.10
2022-08-17T18:53:54.149Z,38.53
2022-08-17T18:57:03.996Z,33.40
2022-08-17T18:59:49.505Z,37.03
2022-08-17T19:02:47.596Z,37.97
2022-08-17T19:05:50.019Z,36.75
2022-08-17T19:08:35.582Z,34.38
2022-08-17T19:11:24.512Z,38.42
2022-08-17T19:14:16.148Z,35.58
2022-08-17T19:17:25.600Z,36.67
2022-08-17T19:20:30.186Z,36.00
2022-08-17T19:23:21.611Z,36.67
2022-08-17T19:26:54.393Z,39.78
2022-08-17T19:29:36.617Z,38.70
2022-08-17T19:32:25.744Z,37.35
2022-08-17T19:35:16.790Z,35.78
2022-08-17T19:38:26.195Z,39.30
2022-08-17T19:41:44.042Z,36.90
2022-08-17T19:45:07.333Z,35.10
2022-08-17T19:48:03.844Z,33.30
2022-08-17T19:54:07.185Z,28.73
2022-08-17T19:57:06.208Z,29.15
2022-08-17T19:59:54.338Z,31.20
2022-08-17T20:03:06.206Z,34.80
2022-08-17T20:06:19.346Z,36.53
2022-08-17T20:09:38.418Z,34.92
2022-08-17T20:12:37.895Z,47.72
2022-08-17T20:15:29.420Z,44.45
2022-08-17T20:18:37.273Z,47.47
2022-08-17T20:21:25.482Z,47.35
2022-08-17T20:24:36.483Z,64.28
2022-08-17T20:27:28.018Z,58.17
2022-08-17T20:30:23.569Z,49.20
2022-08-17T20:33:39.452Z,48.88
2022-08-17T20:36:25.247Z,55.00
2022-08-17T20:39:37.314Z,53.00
2022-08-17T20:42:22.350Z,58.67
2022-08-17T20:45:26.691Z,51.03
2022-08-17T20:48:36.437Z,63.13
2022-08-17T20:52:00.820Z,57.13
2022-08-17T20:54:53.742Z,44.80
2022-08-17T20:57:38.764Z,43.75
2022-08-17T21:00:29.901Z,44.08
2022-08-17T21:03:23.849Z,49.22
2022-08-17T21:06:17.164Z,43.13
2022-08-17T21:09:29.444Z,48.78
2022-08-17T21:12:47.422Z,47.22
2022-08-17T21:15:43.281Z,45.17
2022-08-17T21:18:49.815Z,49.42
2022-08-17T21:22:16.668Z,50.13
2022-08-17T21:25:40.305Z,46.03
2022-08-17T21:29:00.628Z,51.90
2022-08-17T21:32:15.814Z,45.47
2022-08-17T21:35:06.940Z,45.80
2022-08-17T21:38:02.405Z,52.42
2022-08-17T21:40:52.247Z,46.55
2022-08-17T21:43:48.803Z,42.42
2022-08-17T21:49:26.322Z,41.00
2022-08-17T21:52:14.601Z,41.65
2022-08-17T21:55:01.876Z,42.92
2022-08-17T21:57:53.073Z,43.13
2022-08-17T22:01:23.058Z,49.20
2022-08-17T22:04:11.530Z,48.25
2022-08-17T22:06:59.104Z,49.85
2022-08-17T22:09:49.468Z,46.45
2022-08-17T22:12:34.363Z,47.25
2022-08-17T22:15:20.320Z,55.25
2022-08-17T22:18:21.666Z,43.70
2022-08-17T22:21:07.147Z,39.45
2022-08-17T22:24:22.139Z,41.63
2022-08-17T22:27:12.721Z,46.03
2022-08-17T22:29:59.287Z,43.83
2022-08-17T22:32:47.723Z,51.95
2022-08-17T22:35:55.238Z,43.25
2022-08-17T22:38:43.764Z,39.95
2022-08-17T22:41:34.023Z,50.95
2022-08-17T22:44:22.692Z,51.67
2022-08-17T22:47:14.343Z,41.20
2022-08-17T22:50:02.692Z,49.35
2022-08-17T22:53:16.384Z,45.95
2022-08-17T22:56:19.715Z,42.08
2022-08-17T22:59:21.864Z,43.00
2022-08-17T23:02:15.708Z,43.15
2022-08-17T23:05:10.200Z,43.80
2022-08-17T23:07:55.404Z,48.70
2022-08-17T23:10:41.482Z,37.40
2022-08-17T23:13:27.468Z,43.55
2022-08-17T23:16:14.456Z,41.65
2022-08-17T23:18:59.480Z,49.88
2022-08-17T23:21:45.068Z,49.15
2022-08-17T23:24:35.177Z,55.33
2022-08-17T23:27:21.581Z,51.13
2022-08-17T23:30:10.322Z,43.90
2022-08-17T23:33:00.755Z,47.80
2022-08-17T23:35:45.948Z,42.58
2022-08-17T23:38:32.517Z,43.15
2022-08-17T23:41:19.935Z,48.83
2022-08-17T23:44:06.687Z,46.10
2022-08-17T23:46:52.377Z,45.40
2022-08-17T23:49:38.146Z,51.92
2022-08-17T23:52:25.792Z,40.35
2022-08-17T23:55:10.845Z,40.95
2022-08-17T23:57:55.826Z,40.83
